South Bethlehem, NY (12161)

2:30 PM EST on February 06, 2016 (GMT -0500)
Callanan's Corners | | Change Station
CLOSE
Current Station
Personal Weather Station
Location: Ravena, NY
Elevation: 387 ft
Nearby Weather Stations

Elev 387 ft 42.53 °N, 73.89 °W | Updated 8 minutes ago

Mostly Cloudy
Mostly Cloudy
40.3 °F
Feels Like 36 °F
N
6.0
Wind Variable Wind from South
Gusts 15.0 mph

Today
High -- | Low -- °F
--% Chance of Precip.
Yesterday
High -- | Low -- °F
Precip. -- in
Pressure 30.21 in
Visibility 10.0 miles
Clouds Scattered Clouds 6500 ft
Mostly Cloudy 8000 ft
Mostly Cloudy 27000 ft
Windchill 36 °F
Dew Point 21 °F
Humidity 47%
Rainfall 0.00 in
Snow Depth Not available.
7:04 AM 5:15 PM
Waning Crescent, 4% visible
METAR KALB 061851Z 17009G18KT 10SM SCT065 BKN080 BKN270 04/M08 A3020 RMK AO2 SLP229 T00441083
Pressure 30.21 in
Visibility 10.0 miles
Clouds Scattered Clouds 6500 ft
Mostly Cloudy 8000 ft
Mostly Cloudy 27000 ft
Windchill 36 °F
Dew Point 21 °F
Humidity 47%
Rainfall 0.00 in
Snow Depth Not available.
7:04 AM 5:15 PM
Waning Crescent, 4% visible
METAR KALB 061851Z 17009G18KT 10SM SCT065 BKN080 BKN270 04/M08 A3020 RMK AO2 SLP229 T00441083

10-Day Weather Forecast

Almanac

Astronomy

Feb. 06, 2016 Rise Set
Actual Time
Civil Twilight
Nautical Twilight
Astronomical Twilight
Moon
Length of Visible Light
Length of Day
Tomorrow will be .
, % of the Moon is Illuminated

Today's Extremes

State Highs State Lows

Community

WunderPhotos

Upload Photos

1,891,036 photos uploaded!

WunderBlog® & News

Nearby

Air Quality

  Air Quality AQ Index Pollutant
Not available.

Snow Depth

Station Depth Elevation

Earthquake Activity

City Distance Mag. Time & Date
Minimum magnitude displayed is 2.5.

Coastal Water Temperatures

Place Temperature

Stations

Nearby Weather Stations

Station Location Temp. Windchill Dew Point Humidity Wind Precip. Elev Updated Type
                   

Watches & Warnings

There are currently no watches in effect.